Broek op Langedijk, Netherlands
Current Conditions -  °F | °C
As of 3:55 PM on Friday 28 Nov 2014 (Local Time) from EHKD Reporting Station
Haze Haze  
Wind Chill: 34°   Ceiling: 8300
Heat Index: 43°   Visibility: 4mi
Dew Point: 39°   Wind: 20mph
Humidity: 87%   Direction: 90°E
Pressure: 29.8"   Gusts: NA
Location:  52.67°N, 4.81°E
Report Text: EHKD 281455Z AUTO 09017KT 7000 BR BKN083 OVC093 06/04 Q1009 WHT 10015KT 7000 BR BKN100
Loading
Personal Weather Stations






























Interactive Weather Map New forecast layout! Learn more

10-Day Weather Forecast

Advertisements
Track Severe Weather on mobile